sensor_id;sensor_type;location;lat;lon;timestamp;pressure;altitude;pressure_sealevel;temperature;humidity
38530;BME280;24301;54.332;48.386;2024-02-26T00:00:00;101378.78;;;-11.15;35.39
38530;BME280;24301;54.332;48.386;2024-02-26T00:02:26;101370.09;;;-11.17;34.59
38530;BME280;24301;54.332;48.386;2024-02-26T00:04:52;101374.69;;;-11.21;34.85
38530;BME280;24301;54.332;48.386;2024-02-26T00:07:18;101378.53;;;-11.25;35.17
38530;BME280;24301;54.332;48.386;2024-02-26T00:09:44;101373.66;;;-11.31;35.05
38530;BME280;24301;54.332;48.386;2024-02-26T00:12:10;101371.84;;;-11.32;35.07
38530;BME280;24301;54.332;48.386;2024-02-26T00:14:35;101374.78;;;-11.36;34.50
38530;BME280;24301;54.332;48.386;2024-02-26T00:17:01;101374.13;;;-11.42;35.26
38530;BME280;24301;54.332;48.386;2024-02-26T00:19:28;101372.78;;;-11.31;35.21
38530;BME280;24301;54.332;48.386;2024-02-26T00:21:54;101368.91;;;-11.28;35.40
38530;BME280;24301;54.332;48.386;2024-02-26T00:24:21;101372.03;;;-11.30;34.74
38530;BME280;24301;54.332;48.386;2024-02-26T00:26:47;101376.38;;;-11.29;35.01
38530;BME280;24301;54.332;48.386;2024-02-26T00:29:19;101366.38;;;-11.28;34.16
38530;BME280;24301;54.332;48.386;2024-02-26T00:31:45;101369.25;;;-11.24;34.71
38530;BME280;24301;54.332;48.386;2024-02-26T00:34:11;101363.06;;;-11.19;34.56
38530;BME280;24301;54.332;48.386;2024-02-26T00:36:37;101355.34;;;-11.12;35.04
38530;BME280;24301;54.332;48.386;2024-02-26T00:39:02;101352.75;;;-11.05;35.08
38530;BME280;24301;54.332;48.386;2024-02-26T00:41:29;101363.94;;;-10.95;34.58
38530;BME280;24301;54.332;48.386;2024-02-26T00:43:55;101355.25;;;-10.98;34.29
38530;BME280;24301;54.332;48.386;2024-02-26T00:46:21;101357.38;;;-10.93;34.43
38530;BME280;24301;54.332;48.386;2024-02-26T00:48:47;101361.13;;;-10.90;34.25
38530;BME280;24301;54.332;48.386;2024-02-26T00:51:13;101358.03;;;-10.87;34.09
38530;BME280;24301;54.332;48.386;2024-02-26T00:53:38;101354.19;;;-10.84;34.24
38530;BME280;24301;54.332;48.386;2024-02-26T00:56:04;101357.00;;;-10.73;34.48
38530;BME280;24301;54.332;48.386;2024-02-26T00:58:30;101359.84;;;-10.70;33.94
38530;BME280;24301;54.332;48.386;2024-02-26T01:00:56;101353.88;;;-10.71;33.90
38530;BME280;24301;54.332;48.386;2024-02-26T01:03:22;101350.66;;;-10.77;33.74
38530;BME280;24301;54.332;48.386;2024-02-26T01:05:48;101350.66;;;-10.77;33.98
38530;BME280;24301;54.332;48.386;2024-02-26T01:08:14;101359.44;;;-10.66;33.93
38530;BME280;24301;54.332;48.386;2024-02-26T01:10:40;101369.94;;;-10.63;34.07
38530;BME280;24301;54.332;48.386;2024-02-26T01:13:05;101361.84;;;-10.68;33.52
38530;BME280;24301;54.332;48.386;2024-02-26T01:15:33;101364.63;;;-10.73;33.73
38530;BME280;24301;54.332;48.386;2024-02-26T01:17:59;101366.41;;;-10.72;34.30
38530;BME280;24301;54.332;48.386;2024-02-26T01:20:24;101373.16;;;-10.73;33.43
38530;BME280;24301;54.332;48.386;2024-02-26T01:22:50;101366.97;;;-10.75;33.72
38530;BME280;24301;54.332;48.386;2024-02-26T01:25:16;101368.41;;;-10.70;33.82
38530;BME280;24301;54.332;48.386;2024-02-26T01:27:43;101351.06;;;-10.81;33.71
38530;BME280;24301;54.332;48.386;2024-02-26T01:30:10;101365.75;;;-10.78;33.49
38530;BME280;24301;54.332;48.386;2024-02-26T01:32:36;101370.66;;;-10.80;34.01
38530;BME280;24301;54.332;48.386;2024-02-26T01:35:02;101365.25;;;-10.83;33.70
38530;BME280;24301;54.332;48.386;2024-02-26T01:37:36;101367.06;;;-10.82;33.82
38530;BME280;24301;54.332;48.386;2024-02-26T01:40:02;101377.84;;;-10.69;33.68
38530;BME280;24301;54.332;48.386;2024-02-26T01:42:30;101359.44;;;-10.66;33.06
38530;BME280;24301;54.332;48.386;2024-02-26T01:44:58;101364.84;;;-10.63;33.79
38530;BME280;24301;54.332;48.386;2024-02-26T01:47:25;101370.13;;;-10.61;32.96
38530;BME280;24301;54.332;48.386;2024-02-26T01:49:52;101359.94;;;-10.61;32.74
38530;BME280;24301;54.332;48.386;2024-02-26T01:52:19;101351.06;;;-10.65;32.55
38530;BME280;24301;54.332;48.386;2024-02-26T01:54:46;101351.41;;;-10.62;32.62
38530;BME280;24301;54.332;48.386;2024-02-26T01:57:18;101364.28;;;-10.60;32.78
38530;BME280;24301;54.332;48.386;2024-02-26T01:59:44;101371.09;;;-10.68;32.82
38530;BME280;24301;54.332;48.386;2024-02-26T02:02:11;101370.78;;;-10.71;32.93
38530;BME280;24301;54.332;48.386;2024-02-26T02:04:39;101358.97;;;-10.71;32.58
38530;BME280;24301;54.332;48.386;2024-02-26T02:07:05;101364.09;;;-10.78;32.44
38530;BME280;24301;54.332;48.386;2024-02-26T02:09:31;101350.66;;;-10.77;32.46
38530;BME280;24301;54.332;48.386;2024-02-26T02:11:58;101354.63;;;-10.72;32.66
38530;BME280;24301;54.332;48.386;2024-02-26T02:14:25;101363.00;;;-10.73;32.25
38530;BME280;24301;54.332;48.386;2024-02-26T02:16:51;101364.84;;;-10.79;32.30
38530;BME280;24301;54.332;48.386;2024-02-26T02:19:17;101358.56;;;-10.83;32.69
38530;BME280;24301;54.332;48.386;2024-02-26T02:21:42;101357.06;;;-10.80;32.60
38530;BME280;24301;54.332;48.386;2024-02-26T02:24:08;101355.09;;;-10.83;32.14
38530;BME280;24301;54.332;48.386;2024-02-26T02:26:34;101354.44;;;-10.89;32.44
38530;BME280;24301;54.332;48.386;2024-02-26T02:29:00;101352.94;;;-10.87;32.39
38530;BME280;24301;54.332;48.386;2024-02-26T02:31:26;101350.75;;;-10.84;32.51
38530;BME280;24301;54.332;48.386;2024-02-26T02:33:52;101342.38;;;-10.83;32.04
38530;BME280;24301;54.332;48.386;2024-02-26T02:36:21;101340.78;;;-10.90;32.50
38530;BME280;24301;54.332;48.386;2024-02-26T02:39:03;101347.34;;;-10.92;32.47
38530;BME280;24301;54.332;48.386;2024-02-26T02:41:29;101344.16;;;-10.98;32.47
38530;BME280;24301;54.332;48.386;2024-02-26T02:43:55;101322.09;;;-11.06;32.47
38530;BME280;24301;54.332;48.386;2024-02-26T02:46:21;101334.47;;;-11.09;31.97
38530;BME280;24301;54.332;48.386;2024-02-26T02:48:47;101326.50;;;-11.13;32.62
38530;BME280;24301;54.332;48.386;2024-02-26T02:51:13;101331.09;;;-11.17;32.16
38530;BME280;24301;54.332;48.386;2024-02-26T02:53:39;101329.44;;;-11.17;32.52
38530;BME280;24301;54.332;48.386;2024-02-26T02:56:05;101326.41;;;-11.21;31.97
38530;BME280;24301;54.332;48.386;2024-02-26T02:58:31;101322.44;;;-11.27;32.16
38530;BME280;24301;54.332;48.386;2024-02-26T03:00:57;101331.88;;;-11.26;32.19
38530;BME280;24301;54.332;48.386;2024-02-26T03:03:22;101319.22;;;-11.33;32.15
38530;BME280;24301;54.332;48.386;2024-02-26T03:05:49;101331.38;;;-11.30;32.19
38530;BME280;24301;54.332;48.386;2024-02-26T03:08:15;101340.16;;;-11.35;32.08
38530;BME280;24301;54.332;48.386;2024-02-26T03:10:41;101329.13;;;-11.43;32.37
38530;BME280;24301;54.332;48.386;2024-02-26T03:13:09;101333.13;;;-11.45;32.46
38530;BME280;24301;54.332;48.386;2024-02-26T03:15:34;101341.84;;;-11.43;32.14
38530;BME280;24301;54.332;48.386;2024-02-26T03:18:00;101341.97;;;-11.42;32.17
38530;BME280;24301;54.332;48.386;2024-02-26T03:20:26;101335.69;;;-11.45;32.35
38530;BME280;24301;54.332;48.386;2024-02-26T03:22:52;101346.56;;;-11.46;32.22
38530;BME280;24301;54.332;48.386;2024-02-26T03:25:18;101352.00;;;-11.43;31.89
38530;BME280;24301;54.332;48.386;2024-02-26T03:27:44;101345.44;;;-11.41;32.10
38530;BME280;24301;54.332;48.386;2024-02-26T03:30:10;101352.09;;;-11.34;32.10
38530;BME280;24301;54.332;48.386;2024-02-26T03:32:36;101352.25;;;-11.33;32.04
38530;BME280;24301;54.332;48.386;2024-02-26T03:35:01;101357.69;;;-11.30;31.97
38530;BME280;24301;54.332;48.386;2024-02-26T03:37:29;101367.28;;;-11.27;31.80
38530;BME280;24301;54.332;48.386;2024-02-26T03:39:55;101368.69;;;-11.22;32.21
38530;BME280;24301;54.332;48.386;2024-02-26T03:42:22;101358.97;;;-11.10;32.22
38530;BME280;24301;54.332;48.386;2024-02-26T03:44:48;101362.06;;;-10.89;32.06
38530;BME280;24301;54.332;48.386;2024-02-26T03:47:14;101370.72;;;-10.48;31.62
38530;BME280;24301;54.332;48.386;2024-02-26T03:49:40;101360.34;;;-9.92;31.95
38530;BME280;24301;54.332;48.386;2024-02-26T03:52:05;101373.00;;;-9.60;31.55
38530;BME280;24301;54.332;48.386;2024-02-26T03:54:31;101370.72;;;-9.66;31.59
38530;BME280;24301;54.332;48.386;2024-02-26T03:56:57;101371.03;;;-9.63;30.54
38530;BME280;24301;54.332;48.386;2024-02-26T03:59:23;101361.16;;;-9.60;31.49
38530;BME280;24301;54.332;48.386;2024-02-26T04:01:50;101359.78;;;-9.40;31.06
38530;BME280;24301;54.332;48.386;2024-02-26T04:04:16;101363.28;;;-8.88;30.69
38530;BME280;24301;54.332;48.386;2024-02-26T04:06:46;101370.91;;;-8.11;30.18
38530;BME280;24301;54.332;48.386;2024-02-26T04:09:14;101360.81;;;-7.19;30.08
38530;BME280;24301;54.332;48.386;2024-02-26T04:11:40;101367.72;;;-6.15;29.23
38530;BME280;24301;54.332;48.386;2024-02-26T04:14:06;101361.69;;;-5.38;28.76
38530;BME280;24301;54.332;48.386;2024-02-26T04:16:34;101365.59;;;-4.51;27.94
38530;BME280;24301;54.332;48.386;2024-02-26T04:19:01;101370.53;;;-3.48;27.64
38530;BME280;24301;54.332;48.386;2024-02-26T04:21:27;101374.59;;;-2.50;26.69
38530;BME280;24301;54.332;48.386;2024-02-26T04:24:07;101378.75;;;-1.59;25.49
38530;BME280;24301;54.332;48.386;2024-02-26T04:27:00;101386.47;;;-0.85;25.54
38530;BME280;24301;54.332;48.386;2024-02-26T04:29:26;101387.41;;;-0.97;24.40
38530;BME280;24301;54.332;48.386;2024-02-26T04:31:52;101399.13;;;-0.51;24.75
38530;BME280;24301;54.332;48.386;2024-02-26T04:34:17;101403.09;;;0.35;24.36
38530;BME280;24301;54.332;48.386;2024-02-26T04:36:43;101402.66;;;0.96;23.47
38530;BME280;24301;54.332;48.386;2024-02-26T04:39:09;101399.72;;;1.33;22.66
38530;BME280;24301;54.332;48.386;2024-02-26T04:41:35;101402.88;;;2.01;23.01
38530;BME280;24301;54.332;48.386;2024-02-26T04:44:01;101392.75;;;2.36;22.15
38530;BME280;24301;54.332;48.386;2024-02-26T04:46:27;101389.72;;;2.43;21.61
38530;BME280;24301;54.332;48.386;2024-02-26T04:48:54;101396.91;;;2.17;20.38
38530;BME280;24301;54.332;48.386;2024-02-26T04:51:19;101380.69;;;1.76;20.42
38530;BME280;24301;54.332;48.386;2024-02-26T04:53:45;101381.53;;;1.90;19.80
38530;BME280;24301;54.332;48.386;2024-02-26T04:56:11;101396.44;;;2.24;20.10
38530;BME280;24301;54.332;48.386;2024-02-26T04:58:37;101388.34;;;2.81;19.30
38530;BME280;24301;54.332;48.386;2024-02-26T05:01:03;101399.38;;;3.58;19.17
38530;BME280;24301;54.332;48.386;2024-02-26T05:03:29;101403.16;;;4.16;19.10
38530;BME280;24301;54.332;48.386;2024-02-26T05:05:55;101398.06;;;4.36;17.96
38530;BME280;24301;54.332;48.386;2024-02-26T05:08:22;101405.19;;;4.40;18.01
38530;BME280;24301;54.332;48.386;2024-02-26T05:10:48;101406.59;;;4.52;17.83
38530;BME280;24301;54.332;48.386;2024-02-26T05:13:14;101409.38;;;5.11;17.99
38530;BME280;24301;54.332;48.386;2024-02-26T05:15:42;101403.69;;;5.79;17.36
38530;BME280;24301;54.332;48.386;2024-02-26T05:18:07;101403.63;;;6.39;17.21
38530;BME280;24301;54.332;48.386;2024-02-26T05:20:34;101414.91;;;7.05;17.41
38530;BME280;24301;54.332;48.386;2024-02-26T05:23:03;101406.69;;;7.67;16.83
38530;BME280;24301;54.332;48.386;2024-02-26T05:25:29;101421.84;;;8.52;16.21
38530;BME280;24301;54.332;48.386;2024-02-26T05:27:56;101417.16;;;9.29;15.76
38530;BME280;24301;54.332;48.386;2024-02-26T05:30:21;101415.03;;;9.78;15.17
38530;BME280;24301;54.332;48.386;2024-02-26T05:32:47;101419.97;;;10.34;15.18
38530;BME280;24301;54.332;48.386;2024-02-26T05:35:13;101416.81;;;10.48;14.64
38530;BME280;24301;54.332;48.386;2024-02-26T05:37:40;101423.47;;;10.33;14.15
38530;BME280;24301;54.332;48.386;2024-02-26T05:40:06;101424.00;;;10.20;13.93
38530;BME280;24301;54.332;48.386;2024-02-26T05:42:32;101415.03;;;10.45;13.93
38530;BME280;24301;54.332;48.386;2024-02-26T05:44:59;101414.19;;;10.46;13.56
38530;BME280;24301;54.332;48.386;2024-02-26T05:47:24;101430.13;;;10.92;13.60
38530;BME280;24301;54.332;48.386;2024-02-26T05:49:50;101439.75;;;10.90;13.09
38530;BME280;24301;54.332;48.386;2024-02-26T05:52:16;101423.53;;;10.72;13.16
38530;BME280;24301;54.332;48.386;2024-02-26T05:54:42;101435.63;;;11.02;13.23
38530;BME280;24301;54.332;48.386;2024-02-26T05:57:08;101433.91;;;11.04;12.92
38530;BME280;24301;54.332;48.386;2024-02-26T05:59:33;101431.72;;;10.84;12.70
38530;BME280;24301;54.332;48.386;2024-02-26T06:01:59;101424.31;;;10.68;12.30
38530;BME280;24301;54.332;48.386;2024-02-26T06:04:25;101425.66;;;10.87;12.44
38530;BME280;24301;54.332;48.386;2024-02-26T06:06:51;101422.38;;;11.40;12.25
38530;BME280;24301;54.332;48.386;2024-02-26T06:09:17;101411.19;;;11.50;12.03
38530;BME280;24301;54.332;48.386;2024-02-26T06:11:42;101421.13;;;11.23;11.77
38530;BME280;24301;54.332;48.386;2024-02-26T06:14:08;101416.59;;;11.14;11.90
38530;BME280;24301;54.332;48.386;2024-02-26T06:16:35;101420.38;;;11.27;11.66
38530;BME280;24301;54.332;48.386;2024-02-26T06:19:01;101427.34;;;11.25;11.51
38530;BME280;24301;54.332;48.386;2024-02-26T06:21:27;101419.63;;;11.34;11.23
38530;BME280;24301;54.332;48.386;2024-02-26T06:23:53;101431.41;;;11.52;11.43
38530;BME280;24301;54.332;48.386;2024-02-26T06:26:19;101419.31;;;12.07;11.45
38530;BME280;24301;54.332;48.386;2024-02-26T06:28:44;101434.53;;;12.79;11.16
38530;BME280;24301;54.332;48.386;2024-02-26T06:31:10;101424.56;;;13.97;10.82
38530;BME280;24301;54.332;48.386;2024-02-26T06:33:36;101434.69;;;14.48;10.48
38530;BME280;24301;54.332;48.386;2024-02-26T06:36:02;101430.41;;;14.62;10.26
38530;BME280;24301;54.332;48.386;2024-02-26T06:38:28;101430.59;;;14.81;10.17
38530;BME280;24301;54.332;48.386;2024-02-26T06:40:54;101435.22;;;15.22;9.88
38530;BME280;24301;54.332;48.386;2024-02-26T06:43:20;101418.53;;;15.45;9.84
38530;BME280;24301;54.332;48.386;2024-02-26T06:45:45;101421.00;;;15.00;9.44
38530;BME280;24301;54.332;48.386;2024-02-26T06:48:11;101416.63;;;15.15;9.48
38530;BME280;24301;54.332;48.386;2024-02-26T06:50:37;101415.94;;;15.64;9.52
38530;BME280;24301;54.332;48.386;2024-02-26T06:53:03;101414.28;;;16.08;9.28
38530;BME280;24301;54.332;48.386;2024-02-26T06:55:29;101422.28;;;16.37;8.90
38530;BME280;24301;54.332;48.386;2024-02-26T06:57:55;101429.31;;;16.54;9.19
38530;BME280;24301;54.332;48.386;2024-02-26T07:00:20;101422.25;;;16.33;8.83
38530;BME280;24301;54.332;48.386;2024-02-26T07:02:46;101428.41;;;16.77;9.12
38530;BME280;24301;54.332;48.386;2024-02-26T07:05:12;101415.97;;;17.08;8.77
38530;BME280;24301;54.332;48.386;2024-02-26T07:07:38;101413.94;;;17.73;8.82
38530;BME280;24301;54.332;48.386;2024-02-26T07:10:04;101414.38;;;18.38;8.39
38530;BME280;24301;54.332;48.386;2024-02-26T07:12:31;101414.44;;;18.32;8.23
38530;BME280;24301;54.332;48.386;2024-02-26T07:14:57;101405.41;;;18.46;8.29
38530;BME280;24301;54.332;48.386;2024-02-26T07:17:23;101411.50;;;18.59;8.37
38530;BME280;24301;54.332;48.386;2024-02-26T07:19:49;101412.38;;;18.62;8.57
38530;BME280;24301;54.332;48.386;2024-02-26T07:22:15;101410.31;;;18.89;9.04
38530;BME280;24301;54.332;48.386;2024-02-26T07:24:41;101398.44;;;18.35;9.50
38530;BME280;24301;54.332;48.386;2024-02-26T07:27:07;101410.31;;;17.85;9.95
38530;BME280;24301;54.332;48.386;2024-02-26T07:29:33;101402.16;;;18.11;9.27
38530;BME280;24301;54.332;48.386;2024-02-26T07:31:59;101399.06;;;18.61;9.29
38530;BME280;24301;54.332;48.386;2024-02-26T07:34:25;101397.81;;;18.96;9.23
38530;BME280;24301;54.332;48.386;2024-02-26T07:36:57;101405.34;;;19.36;8.78
38530;BME280;24301;54.332;48.386;2024-02-26T07:39:23;101399.06;;;19.42;8.75
38530;BME280;24301;54.332;48.386;2024-02-26T07:41:49;101394.63;;;19.41;8.70
38530;BME280;24301;54.332;48.386;2024-02-26T07:44:17;101394.63;;;19.39;8.47
38530;BME280;24301;54.332;48.386;2024-02-26T07:46:43;101399.19;;;19.30;8.28
38530;BME280;24301;54.332;48.386;2024-02-26T07:49:09;101399.59;;;18.95;8.26
38530;BME280;24301;54.332;48.386;2024-02-26T07:51:35;101396.22;;;18.78;8.14
38530;BME280;24301;54.332;48.386;2024-02-26T07:54:01;101386.38;;;18.85;8.03
38530;BME280;24301;54.332;48.386;2024-02-26T07:56:30;101394.63;;;18.61;8.12
38530;BME280;24301;54.332;48.386;2024-02-26T07:58:56;101394.81;;;18.43;8.01
38530;BME280;24301;54.332;48.386;2024-02-26T08:01:22;101395.19;;;18.91;8.17
38530;BME280;24301;54.332;48.386;2024-02-26T08:03:48;101381.81;;;18.98;7.78
38530;BME280;24301;54.332;48.386;2024-02-26T08:06:14;101385.53;;;18.84;7.86
38530;BME280;24301;54.332;48.386;2024-02-26T08:08:47;101392.03;;;18.53;7.61
38530;BME280;24301;54.332;48.386;2024-02-26T08:11:15;101384.91;;;18.57;7.84
38530;BME280;24301;54.332;48.386;2024-02-26T08:13:44;101378.25;;;18.08;7.85
38530;BME280;24301;54.332;48.386;2024-02-26T08:16:22;101383.25;;;16.99;7.89
38530;BME280;24301;54.332;48.386;2024-02-26T08:18:47;101381.56;;;16.57;8.36
38530;BME280;24301;54.332;48.386;2024-02-26T08:21:13;101369.06;;;15.44;8.19
38530;BME280;24301;54.332;48.386;2024-02-26T08:23:39;101368.78;;;12.97;8.69
38530;BME280;24301;54.332;48.386;2024-02-26T08:26:05;101364.75;;;9.98;9.98
38530;BME280;24301;54.332;48.386;2024-02-26T08:28:32;101363.47;;;7.54;10.87
38530;BME280;24301;54.332;48.386;2024-02-26T08:30:58;101358.81;;;5.87;11.40
38530;BME280;24301;54.332;48.386;2024-02-26T08:33:24;101358.75;;;3.95;12.30
38530;BME280;24301;54.332;48.386;2024-02-26T08:35:50;101350.53;;;2.86;12.86
38530;BME280;24301;54.332;48.386;2024-02-26T08:38:16;101342.13;;;2.12;13.65
38530;BME280;24301;54.332;48.386;2024-02-26T08:40:41;101348.63;;;1.31;14.19
38530;BME280;24301;54.332;48.386;2024-02-26T08:43:07;101355.16;;;0.68;14.85
38530;BME280;24301;54.332;48.386;2024-02-26T08:45:33;101355.63;;;0.34;14.88
38530;BME280;24301;54.332;48.386;2024-02-26T08:47:59;101348.47;;;0.30;14.76
38530;BME280;24301;54.332;48.386;2024-02-26T08:50:25;101348.56;;;0.18;15.36
38530;BME280;24301;54.332;48.386;2024-02-26T08:52:51;101356.31;;;0.32;15.55
38530;BME280;24301;54.332;48.386;2024-02-26T08:55:18;101345.84;;;0.43;15.10
38530;BME280;24301;54.332;48.386;2024-02-26T08:57:44;101345.66;;;0.40;15.87
38530;BME280;24301;54.332;48.386;2024-02-26T09:00:10;101346.88;;;0.32;15.38
38530;BME280;24301;54.332;48.386;2024-02-26T09:02:36;101344.88;;;0.28;15.76
38530;BME280;24301;54.332;48.386;2024-02-26T09:05:05;101344.38;;;0.20;15.49
38530;BME280;24301;54.332;48.386;2024-02-26T09:07:31;101339.81;;;0.16;15.58
38530;BME280;24301;54.332;48.386;2024-02-26T09:09:57;101340.25;;;-0.03;15.58
38530;BME280;24301;54.332;48.386;2024-02-26T09:12:23;101330.59;;;-0.19;15.74
38530;BME280;24301;54.332;48.386;2024-02-26T09:14:48;101340.75;;;-0.22;15.54
38530;BME280;24301;54.332;48.386;2024-02-26T09:17:14;101333.19;;;-0.19;15.74
38530;BME280;24301;54.332;48.386;2024-02-26T09:19:40;101330.72;;;-0.04;16.03
38530;BME280;24301;54.332;48.386;2024-02-26T09:22:07;101334.03;;;-0.07;16.48
38530;BME280;24301;54.332;48.386;2024-02-26T09:24:33;101334.69;;;-0.09;16.16
38530;BME280;24301;54.332;48.386;2024-02-26T09:26:59;101335.50;;;-0.10;16.03
38530;BME280;24301;54.332;48.386;2024-02-26T09:29:25;101331.13;;;-0.25;16.01
38530;BME280;24301;54.332;48.386;2024-02-26T09:31:52;101337.44;;;-0.33;16.25
38530;BME280;24301;54.332;48.386;2024-02-26T09:34:17;101333.19;;;-0.33;16.44
38530;BME280;24301;54.332;48.386;2024-02-26T09:36:43;101324.25;;;-0.38;16.94
38530;BME280;24301;54.332;48.386;2024-02-26T09:39:09;101330.16;;;-0.52;16.94
38530;BME280;24301;54.332;48.386;2024-02-26T09:41:37;101335.44;;;-0.76;17.03
38530;BME280;24301;54.332;48.386;2024-02-26T09:44:04;101340.06;;;-0.84;17.11
38530;BME280;24301;54.332;48.386;2024-02-26T09:46:30;101335.22;;;-0.79;17.10
38530;BME280;24301;54.332;48.386;2024-02-26T09:48:57;101330.66;;;-0.83;17.16
38530;BME280;24301;54.332;48.386;2024-02-26T09:51:23;101331.06;;;-0.77;17.36
38530;BME280;24301;54.332;48.386;2024-02-26T09:53:54;101323.66;;;-0.59;17.11
38530;BME280;24301;54.332;48.386;2024-02-26T09:56:21;101325.19;;;-0.49;17.53
38530;BME280;24301;54.332;48.386;2024-02-26T09:58:48;101319.81;;;-0.52;17.39
38530;BME280;24301;54.332;48.386;2024-02-26T10:01:19;101323.66;;;-0.59;17.69
38530;BME280;24301;54.332;48.386;2024-02-26T10:03:51;101319.22;;;-0.62;17.59
38530;BME280;24301;54.332;48.386;2024-02-26T10:06:18;101331.09;;;-0.64;17.46
38530;BME280;24301;54.332;48.386;2024-02-26T10:08:44;101324.38;;;-0.62;17.92
38530;BME280;24301;54.332;48.386;2024-02-26T10:11:10;101317.41;;;-0.63;17.76
38530;BME280;24301;54.332;48.386;2024-02-26T10:13:36;101323.00;;;-0.56;17.90
38530;BME280;24301;54.332;48.386;2024-02-26T10:16:03;101316.63;;;-0.48;18.14
38530;BME280;24301;54.332;48.386;2024-02-26T10:18:51;101324.63;;;-0.32;18.41
38530;BME280;24301;54.332;48.386;2024-02-26T10:21:17;101319.06;;;-0.24;18.16
38530;BME280;24301;54.332;48.386;2024-02-26T10:23:44;101315.28;;;-0.30;18.25
38530;BME280;24301;54.332;48.386;2024-02-26T10:26:14;101311.91;;;-0.15;18.48
38530;BME280;24301;54.332;48.386;2024-02-26T10:28:44;101303.88;;;0.07;18.42
38530;BME280;24301;54.332;48.386;2024-02-26T10:31:10;101319.38;;;0.21;17.90
38530;BME280;24301;54.332;48.386;2024-02-26T10:33:37;101311.34;;;0.16;18.33
38530;BME280;24301;54.332;48.386;2024-02-26T10:36:07;101313.31;;;0.20;18.36
38530;BME280;24301;54.332;48.386;2024-02-26T10:38:37;101310.84;;;0.08;18.20
38530;BME280;24301;54.332;48.386;2024-02-26T10:41:04;101313.22;;;0.19;18.21
38530;BME280;24301;54.332;48.386;2024-02-26T10:43:31;101305.94;;;0.40;18.41
38530;BME280;24301;54.332;48.386;2024-02-26T10:45:58;101312.13;;;0.42;18.75
38530;BME280;24301;54.332;48.386;2024-02-26T10:48:24;101308.53;;;0.40;18.68
38530;BME280;24301;54.332;48.386;2024-02-26T10:50:50;101301.66;;;0.40;18.50
38530;BME280;24301;54.332;48.386;2024-02-26T10:53:23;101306.91;;;0.55;18.91
38530;BME280;24301;54.332;48.386;2024-02-26T10:55:57;101303.69;;;0.60;18.53
38530;BME280;24301;54.332;48.386;2024-02-26T10:58:23;101298.94;;;0.66;18.59
38530;BME280;24301;54.332;48.386;2024-02-26T11:00:51;101292.47;;;0.59;18.65
38530;BME280;24301;54.332;48.386;2024-02-26T11:03:18;101296.41;;;0.39;18.75
38530;BME280;24301;54.332;48.386;2024-02-26T11:05:50;101299.19;;;0.42;18.71
38530;BME280;24301;54.332;48.386;2024-02-26T11:08:20;101298.56;;;0.46;19.20
38530;BME280;24301;54.332;48.386;2024-02-26T11:10:48;101298.56;;;0.46;19.61
38530;BME280;24301;54.332;48.386;2024-02-26T11:13:15;101297.78;;;0.47;19.69
38530;BME280;24301;54.332;48.386;2024-02-26T11:15:43;101299.25;;;0.57;19.09
38530;BME280;24301;54.332;48.386;2024-02-26T11:18:10;101292.84;;;0.65;19.57
38530;BME280;24301;54.332;48.386;2024-02-26T11:20:38;101299.59;;;0.77;20.02
38530;BME280;24301;54.332;48.386;2024-02-26T11:23:06;101288.56;;;0.66;19.73
38530;BME280;24301;54.332;48.386;2024-02-26T11:25:35;101294.69;;;0.53;19.61
38530;BME280;24301;54.332;48.386;2024-02-26T11:28:05;101297.19;;;0.24;19.41
38530;BME280;24301;54.332;48.386;2024-02-26T11:30:34;101295.03;;;-0.10;19.80
38530;BME280;24301;54.332;48.386;2024-02-26T11:33:06;101295.56;;;-0.41;20.11
38530;BME280;24301;54.332;48.386;2024-02-26T11:35:35;101285.19;;;-0.68;20.04
38530;BME280;24301;54.332;48.386;2024-02-26T11:38:02;101288.31;;;-0.85;20.52
38530;BME280;24301;54.332;48.386;2024-02-26T11:40:31;101281.38;;;-0.87;20.68
38530;BME280;24301;54.332;48.386;2024-02-26T11:42:58;101279.06;;;-0.82;20.73
38530;BME280;24301;54.332;48.386;2024-02-26T11:50:48;101274.16;;;-0.91;20.93
38530;BME280;24301;54.332;48.386;2024-02-26T11:53:30;101262.06;;;-0.92;20.70
38530;BME280;24301;54.332;48.386;2024-02-26T11:58:45;101273.94;;;-1.07;20.64
38530;BME280;24301;54.332;48.386;2024-02-26T12:04:17;101269.13;;;-1.14;21.48
38530;BME280;24301;54.332;48.386;2024-02-26T12:06:48;101256.56;;;-1.22;21.07
38530;BME280;24301;54.332;48.386;2024-02-26T12:09:30;101255.22;;;-1.17;21.39
38530;BME280;24301;54.332;48.386;2024-02-26T12:11:56;101258.78;;;-1.14;21.39
38530;BME280;24301;54.332;48.386;2024-02-26T12:14:25;101261.91;;;-1.32;21.40
38530;BME280;24301;54.332;48.386;2024-02-26T12:16:52;101247.72;;;-1.51;21.64
38530;BME280;24301;54.332;48.386;2024-02-26T12:19:18;101247.47;;;-1.42;21.78
38530;BME280;24301;54.332;48.386;2024-02-26T12:21:44;101249.03;;;-1.44;21.67
38530;BME280;24301;54.332;48.386;2024-02-26T12:24:18;101250.13;;;-1.40;21.93
38530;BME280;24301;54.332;48.386;2024-02-26T12:26:44;101250.66;;;-1.58;21.99
38530;BME280;24301;54.332;48.386;2024-02-26T12:29:10;101262.56;;;-1.72;22.41
38530;BME280;24301;54.332;48.386;2024-02-26T12:31:37;101254.94;;;-1.82;22.52
38530;BME280;24301;54.332;48.386;2024-02-26T12:34:04;101256.88;;;-2.04;22.24
38530;BME280;24301;54.332;48.386;2024-02-26T12:36:30;101248.38;;;-2.26;22.53
38530;BME280;24301;54.332;48.386;2024-02-26T12:38:56;101247.25;;;-2.42;22.60
38530;BME280;24301;54.332;48.386;2024-02-26T12:41:22;101242.19;;;-2.52;22.81
38530;BME280;24301;54.332;48.386;2024-02-26T12:43:48;101252.59;;;-2.75;23.15
38530;BME280;24301;54.332;48.386;2024-02-26T12:46:15;101240.69;;;-2.84;23.31
38530;BME280;24301;54.332;48.386;2024-02-26T12:48:46;101239.13;;;-2.82;23.61